createdAt,value
2023-04-16T00:01:38.406Z,79.72
2023-04-16T00:04:06.004Z,79.48
2023-04-16T00:06:33.066Z,79.57
2023-04-16T00:09:01.222Z,80.49
2023-04-16T00:11:27.773Z,81.02
2023-04-16T00:13:54.355Z,80.05
2023-04-16T00:16:20.935Z,79.96
2023-04-16T00:18:47.715Z,80.46
2023-04-16T00:21:14.372Z,79.21
2023-04-16T00:23:40.930Z,79.52
2023-04-16T00:26:09.644Z,79.82
2023-04-16T00:28:36.599Z,79.10
2023-04-16T00:31:03.256Z,79.04
2023-04-16T00:33:30.257Z,78.81
2023-04-16T00:35:56.830Z,79.42
2023-04-16T00:38:24.070Z,79.75
2023-04-16T00:40:50.952Z,79.72
2023-04-16T00:43:22.541Z,80.26
2023-04-16T00:45:49.270Z,80.34
2023-04-16T00:48:16.405Z,80.08
2023-04-16T00:50:44.032Z,79.40
2023-04-16T00:53:10.709Z,80.19
2023-04-16T00:55:37.431Z,80.16
2023-04-16T00:58:04.174Z,79.81
2023-04-16T01:00:32.129Z,79.53
2023-04-16T01:02:59.636Z,78.74
2023-04-16T01:05:26.582Z,78.42
2023-04-16T01:07:53.151Z,78.86
2023-04-16T01:10:19.958Z,80.04
2023-04-16T01:12:46.995Z,79.70
2023-04-16T01:15:13.787Z,79.66
2023-04-16T01:17:41.760Z,79.78
2023-04-16T01:20:09.003Z,78.86
2023-04-16T01:22:36.952Z,78.41
2023-04-16T01:25:03.804Z,78.21
2023-04-16T01:27:30.637Z,78.53
2023-04-16T01:29:57.612Z,78.88
2023-04-16T01:32:24.246Z,79.71
2023-04-16T01:34:50.799Z,79.28
2023-04-16T01:37:17.887Z,79.40
2023-04-16T01:39:45.819Z,79.42
2023-04-16T01:42:12.351Z,79.16
2023-04-16T01:44:39.074Z,79.96
2023-04-16T01:47:05.709Z,79.67
2023-04-16T01:49:32.459Z,79.73
2023-04-16T01:51:59.194Z,79.31
2023-04-16T01:54:26.058Z,79.82
2023-04-16T01:56:53.993Z,78.76
2023-04-16T01:59:20.693Z,79.66
2023-04-16T02:01:47.424Z,79.07
2023-04-16T02:04:14.269Z,78.74
2023-04-16T02:06:40.977Z,79.60
2023-04-16T02:09:08.109Z,79.10
2023-04-16T02:11:34.987Z,79.86
2023-04-16T02:14:03.041Z,79.07
2023-04-16T02:16:29.818Z,79.31
2023-04-16T02:18:56.517Z,80.37
2023-04-16T02:21:23.058Z,79.53
2023-04-16T02:23:49.679Z,78.85
2023-04-16T02:26:16.261Z,77.95
2023-04-16T02:28:43.020Z,80.25
2023-04-16T02:31:10.963Z,80.53
2023-04-16T02:33:37.632Z,78.98
2023-04-16T02:36:04.709Z,79.73
2023-04-16T02:38:31.275Z,81.47
2023-04-16T02:40:58.127Z,81.26
2023-04-16T02:43:24.855Z,81.81
2023-04-16T02:45:51.570Z,81.37
2023-04-16T02:48:19.839Z,82.13
2023-04-16T02:50:46.887Z,81.54
2023-04-16T02:53:13.434Z,80.86
2023-04-16T02:55:39.982Z,80.75
2023-04-16T02:58:06.699Z,81.83
2023-04-16T03:00:33.308Z,82.27
2023-04-16T03:02:59.926Z,82.23
2023-04-16T03:05:27.951Z,82.77
2023-04-16T03:07:54.521Z,82.74
2023-04-16T03:10:21.063Z,82.51
2023-04-16T03:12:47.645Z,82.37
2023-04-16T03:15:14.364Z,81.20
2023-04-16T03:17:40.979Z,81.85
2023-04-16T03:20:08.876Z,81.35
2023-04-16T03:22:36.948Z,81.16
2023-04-16T03:25:03.956Z,79.91
2023-04-16T03:27:30.686Z,80.96
2023-04-16T03:29:57.473Z,81.86
2023-04-16T03:32:24.439Z,81.15
2023-04-16T03:34:51.352Z,81.51
2023-04-16T03:37:17.870Z,80.64
2023-04-16T03:39:45.902Z,81.03
2023-04-16T03:42:12.482Z,79.72
2023-04-16T03:44:39.072Z,79.21
2023-04-16T03:47:05.647Z,78.87
2023-04-16T03:49:32.366Z,79.39
2023-04-16T03:51:59.035Z,80.57
2023-04-16T03:54:25.680Z,80.02
2023-04-16T03:56:53.599Z,79.55
2023-04-16T03:59:20.623Z,79.64
2023-04-16T04:01:47.531Z,79.20
2023-04-16T04:04:14.258Z,80.38
2023-04-16T04:06:41.161Z,79.76
2023-04-16T04:09:08.120Z,79.94
2023-04-16T04:11:34.800Z,80.38
2023-04-16T04:14:02.780Z,80.15
2023-04-16T04:16:29.524Z,79.33
2023-04-16T04:18:56.214Z,78.98
2023-04-16T04:21:23.016Z,79.70
2023-04-16T04:23:49.765Z,79.83
2023-04-16T04:26:16.343Z,79.96
2023-04-16T04:28:42.917Z,81.68
2023-04-16T04:31:10.927Z,80.95
2023-04-16T04:33:37.705Z,81.28
2023-04-16T04:36:04.512Z,81.30
2023-04-16T04:38:31.074Z,80.13
2023-04-16T04:40:57.865Z,78.79
2023-04-16T04:43:24.701Z,79.96
2023-04-16T04:45:51.467Z,80.10
2023-04-16T04:48:19.418Z,79.97
2023-04-16T04:50:46.008Z,81.76
2023-04-16T04:53:12.682Z,80.12
2023-04-16T04:55:39.939Z,79.49
2023-04-16T04:58:07.125Z,79.51
2023-04-16T05:00:34.663Z,79.17
2023-04-16T05:03:03.597Z,80.37
2023-04-16T05:05:31.827Z,81.27
2023-04-16T05:07:58.510Z,81.58
2023-04-16T05:10:26.560Z,80.22
2023-04-16T05:12:53.227Z,79.56
2023-04-16T05:15:19.964Z,79.17
2023-04-16T05:17:46.596Z,79.60
2023-04-16T05:20:13.196Z,80.52
2023-04-16T05:22:41.377Z,81.21
2023-04-16T05:25:08.632Z,80.22
2023-04-16T05:27:35.325Z,79.84
2023-04-16T05:30:02.097Z,79.60
2023-04-16T05:32:28.877Z,80.65
2023-04-16T05:34:55.444Z,79.83
2023-04-16T05:37:22.019Z,80.01
2023-04-16T05:39:50.069Z,80.73
2023-04-16T05:42:16.650Z,80.42
2023-04-16T05:44:43.210Z,79.51
2023-04-16T05:47:09.917Z,79.05
2023-04-16T05:49:36.691Z,79.93
2023-04-16T05:52:03.933Z,79.51
2023-04-16T05:54:30.652Z,79.37
2023-04-16T05:56:59.501Z,80.32
2023-04-16T05:59:26.072Z,80.32
2023-04-16T06:01:52.820Z,80.58
2023-04-16T06:04:19.645Z,80.71
2023-04-16T06:06:46.332Z,80.41
2023-04-16T06:09:12.953Z,79.87
2023-04-16T06:11:39.600Z,81.02
2023-04-16T06:14:07.537Z,80.85
2023-04-16T06:16:34.175Z,80.04
2023-04-16T06:19:00.980Z,80.36
2023-04-16T06:21:28.705Z,79.65
2023-04-16T06:23:55.571Z,79.56
2023-04-16T06:26:22.355Z,79.95
2023-04-16T06:28:49.268Z,79.92
2023-04-16T06:31:17.308Z,79.96
2023-04-16T06:33:44.056Z,79.31
2023-04-16T06:36:10.677Z,79.42
2023-04-16T06:38:37.339Z,79.19
2023-04-16T06:41:04.045Z,79.30
2023-04-16T06:43:30.848Z,78.37
2023-04-16T06:45:57.441Z,77.86
2023-04-16T06:48:25.512Z,77.73
2023-04-16T06:50:54.109Z,78.96
2023-04-16T06:53:20.742Z,77.05
2023-04-16T06:55:47.621Z,77.19
2023-04-16T06:58:14.246Z,75.93
2023-04-16T07:00:40.880Z,75.61
2023-04-16T07:03:07.913Z,74.83
2023-04-16T07:05:36.270Z,76.25
2023-04-16T07:08:02.924Z,75.58
2023-04-16T07:10:32.406Z,74.98
2023-04-16T07:12:59.056Z,73.66
2023-04-16T07:15:25.611Z,73.88
2023-04-16T07:17:52.357Z,73.50
2023-04-16T07:20:18.978Z,73.54
2023-04-16T07:22:47.029Z,73.08
2023-04-16T07:25:13.695Z,73.67
2023-04-16T07:27:40.258Z,73.18
2023-04-16T07:30:08.332Z,72.79
2023-04-16T07:32:35.165Z,71.32
2023-04-16T07:35:01.896Z,70.27
2023-04-16T07:37:28.480Z,71.04
2023-04-16T07:39:57.371Z,72.57
2023-04-16T07:42:24.148Z,72.35
2023-04-16T07:44:50.709Z,71.87
2023-04-16T07:47:17.595Z,71.48
2023-04-16T07:49:44.179Z,71.75
2023-04-16T07:52:10.793Z,70.31
2023-04-16T07:54:37.583Z,71.19
2023-04-16T07:57:05.559Z,70.88
2023-04-16T07:59:32.193Z,71.19
2023-04-16T08:01:58.949Z,70.96
2023-04-16T08:04:26.381Z,70.79
2023-04-16T08:06:53.841Z,70.99
2023-04-16T08:09:20.922Z,69.47
2023-04-16T08:11:47.536Z,68.86
2023-04-16T08:14:15.609Z,68.20
2023-04-16T08:16:42.357Z,68.42
2023-04-16T08:19:09.150Z,66.90
2023-04-16T08:21:36.057Z,66.86
2023-04-16T08:24:02.746Z,65.91
2023-04-16T08:26:29.408Z,64.87
2023-04-16T08:28:55.971Z,65.48
2023-04-16T08:31:24.034Z,65.33
2023-04-16T08:33:50.630Z,66.38
2023-04-16T08:36:17.230Z,66.07
2023-04-16T08:38:43.797Z,65.24
2023-04-16T08:41:12.974Z,65.37
2023-04-16T08:43:44.394Z,64.67
2023-04-16T08:46:11.463Z,65.20
2023-04-16T08:48:42.368Z,64.79
2023-04-16T08:51:10.847Z,64.93
2023-04-16T08:53:48.359Z,64.92
2023-04-16T08:56:17.838Z,62.40
2023-04-16T08:58:47.497Z,62.46
2023-04-16T09:01:14.723Z,59.90
2023-04-16T09:03:44.513Z,58.82
2023-04-16T09:06:11.409Z,59.14
2023-04-16T09:08:38.956Z,58.28
2023-04-16T09:11:06.060Z,58.65
2023-04-16T09:13:33.002Z,58.62
2023-04-16T09:16:00.182Z,60.79
2023-04-16T09:18:27.035Z,60.84
2023-04-16T09:20:55.255Z,62.27
2023-04-16T09:23:21.807Z,63.02
2023-04-16T09:25:51.135Z,63.70
2023-04-16T09:28:39.009Z,64.04
2023-04-16T09:31:10.127Z,64.13
2023-04-16T09:33:36.685Z,63.19
2023-04-16T09:36:05.644Z,62.12
2023-04-16T09:38:48.940Z,61.01
2023-04-16T09:41:15.991Z,60.71
2023-04-16T09:43:49.201Z,60.29
2023-04-16T09:46:15.834Z,60.19
2023-04-16T09:48:45.782Z,61.21
2023-04-16T09:51:13.726Z,61.87
2023-04-16T09:53:40.369Z,60.32
2023-04-16T09:56:07.708Z,61.14
2023-04-16T09:58:36.304Z,60.13
2023-04-16T10:01:03.783Z,59.51
2023-04-16T10:03:31.238Z,59.75
2023-04-16T10:06:00.273Z,60.42
2023-04-16T10:08:28.334Z,59.79
2023-04-16T10:10:56.094Z,58.34
2023-04-16T10:13:22.748Z,57.92
2023-04-16T10:15:50.145Z,57.54
2023-04-16T10:18:17.698Z,58.09
2023-04-16T10:20:44.650Z,58.00
2023-04-16T10:23:12.007Z,59.40
2023-04-16T10:25:41.298Z,58.96
2023-04-16T10:28:09.785Z,57.19
2023-04-16T10:30:38.643Z,54.67
2023-04-16T10:33:06.094Z,54.21
2023-04-16T10:35:32.651Z,54.30
2023-04-16T10:38:21.489Z,53.48
2023-04-16T10:40:49.508Z,54.43
2023-04-16T10:43:18.212Z,52.09
2023-04-16T10:45:44.766Z,52.68
2023-04-16T10:48:11.425Z,53.80
2023-04-16T10:50:38.393Z,54.94
2023-04-16T10:53:18.916Z,54.98
2023-04-16T10:55:58.463Z,56.09
2023-04-16T10:58:28.709Z,54.73
2023-04-16T11:00:55.309Z,53.85
2023-04-16T11:03:21.981Z,53.39
2023-04-16T11:05:48.646Z,53.51
2023-04-16T11:08:15.825Z,52.30
2023-04-16T11:10:42.489Z,54.54
2023-04-16T11:13:12.883Z,55.19
2023-04-16T11:15:39.519Z,56.13
2023-04-16T11:18:06.246Z,54.03
2023-04-16T11:20:33.179Z,53.32
2023-04-16T11:22:59.660Z,51.68
2023-04-16T11:25:27.634Z,51.21
2023-04-16T11:27:54.190Z,50.07
2023-04-16T11:30:31.037Z,50.72
2023-04-16T11:32:57.706Z,52.60
2023-04-16T11:35:24.351Z,53.29
2023-04-16T11:37:56.656Z,54.31
2023-04-16T11:40:23.461Z,53.11
2023-04-16T11:42:50.096Z,53.98
2023-04-16T11:45:16.851Z,53.30
2023-04-16T11:47:46.182Z,53.19
2023-04-16T11:50:20.321Z,51.83
2023-04-16T11:52:47.488Z,51.67
2023-04-16T11:55:14.230Z,51.62
2023-04-16T11:57:40.776Z,50.18
2023-04-16T12:00:10.581Z,48.31
2023-04-16T12:02:38.911Z,49.97
2023-04-16T12:05:25.849Z,48.59
2023-04-16T12:07:52.369Z,48.20
2023-04-16T12:10:18.960Z,48.61
2023-04-16T12:12:45.657Z,49.26
2023-04-16T12:15:12.316Z,49.93
2023-04-16T12:17:39.132Z,49.96
2023-04-16T12:20:10.833Z,50.12
2023-04-16T12:22:38.764Z,50.70
2023-04-16T12:25:07.084Z,49.91
2023-04-16T12:27:44.535Z,49.80
2023-04-16T12:30:12.022Z,48.57
2023-04-16T12:32:38.812Z,49.54
2023-04-16T12:35:05.970Z,50.39
2023-04-16T12:37:34.102Z,51.22
2023-04-16T12:40:00.724Z,51.54
2023-04-16T12:42:27.403Z,50.62
2023-04-16T12:44:54.007Z,51.64
2023-04-16T12:47:20.663Z,52.63
2023-04-16T12:49:47.295Z,52.27
2023-04-16T12:52:13.970Z,50.36
2023-04-16T12:54:42.033Z,51.55
2023-04-16T12:57:08.650Z,50.82
2023-04-16T12:59:35.218Z,50.43
2023-04-16T13:02:01.871Z,49.63
2023-04-16T13:04:28.761Z,48.90
2023-04-16T13:06:55.477Z,48.20
2023-04-16T13:09:22.133Z,48.81
2023-04-16T13:11:50.083Z,49.10
2023-04-16T13:14:16.675Z,49.27
2023-04-16T13:16:43.267Z,49.29
2023-04-16T13:19:10.188Z,49.28
2023-04-16T13:21:37.218Z,48.37
2023-04-16T13:24:03.994Z,48.80
2023-04-16T13:26:30.645Z,47.26
2023-04-16T13:28:58.517Z,46.89
2023-04-16T13:31:25.692Z,47.80
2023-04-16T13:33:52.375Z,47.55
2023-04-16T13:36:18.943Z,48.62
2023-04-16T13:38:45.815Z,50.06
2023-04-16T13:41:12.400Z,50.97
2023-04-16T13:43:38.959Z,50.08
2023-04-16T13:46:07.002Z,50.10
2023-04-16T13:48:33.732Z,50.15
2023-04-16T13:51:00.295Z,50.54
2023-04-16T13:53:26.857Z,51.75
2023-04-16T13:55:54.093Z,50.64
2023-04-16T13:58:20.799Z,50.78
2023-04-16T14:00:47.566Z,50.85
2023-04-16T14:03:15.604Z,50.80
2023-04-16T14:05:42.261Z,50.54
2023-04-16T14:08:08.998Z,50.80
2023-04-16T14:10:35.680Z,50.63
2023-04-16T14:13:02.416Z,51.51
2023-04-16T14:15:29.127Z,51.58
2023-04-16T14:17:55.792Z,51.02
2023-04-16T14:20:23.868Z,50.37
2023-04-16T14:22:50.705Z,50.81
2023-04-16T14:25:17.396Z,51.79
2023-04-16T14:27:44.198Z,52.34
2023-04-16T14:30:11.272Z,51.73
2023-04-16T14:32:37.988Z,50.63
2023-04-16T14:35:05.771Z,50.63
2023-04-16T14:37:33.889Z,49.89
2023-04-16T14:40:00.853Z,48.65
2023-04-16T14:42:27.735Z,49.66
2023-04-16T14:44:54.374Z,48.81
2023-04-16T14:47:21.015Z,50.19
2023-04-16T14:49:47.859Z,49.99
2023-04-16T14:52:14.499Z,49.14
2023-04-16T14:54:42.486Z,47.92
2023-04-16T14:57:09.264Z,48.90
2023-04-16T14:59:35.877Z,48.67
2023-04-16T15:02:02.659Z,48.38
2023-04-16T15:04:30.170Z,49.47
2023-04-16T15:06:57.261Z,49.35
2023-04-16T15:09:23.842Z,48.66
2023-04-16T15:11:51.918Z,47.77
2023-04-16T15:14:18.580Z,49.70
2023-04-16T15:16:45.333Z,49.21
2023-04-16T15:19:12.396Z,50.07
2023-04-16T15:21:39.144Z,49.52
2023-04-16T15:24:06.491Z,49.70
2023-04-16T15:26:33.105Z,50.15
2023-04-16T15:29:01.199Z,49.91
2023-04-16T15:31:28.033Z,50.53
2023-04-16T15:33:55.131Z,49.56
2023-04-16T15:36:22.052Z,49.42
2023-04-16T15:38:48.986Z,49.22
2023-04-16T15:41:15.596Z,49.23
2023-04-16T15:43:42.153Z,48.90
2023-04-16T15:46:10.146Z,49.01
2023-04-16T15:48:36.756Z,48.13
2023-04-16T15:51:03.469Z,47.88
2023-04-16T15:53:30.125Z,47.29
2023-04-16T15:55:56.687Z,47.35
2023-04-16T15:58:23.269Z,47.40
2023-04-16T16:00:50.086Z,47.47
2023-04-16T16:03:18.754Z,47.84
2023-04-16T16:05:46.348Z,48.56
2023-04-16T16:08:13.357Z,48.79
2023-04-16T16:10:39.968Z,48.27
2023-04-16T16:13:06.712Z,48.82
2023-04-16T16:15:33.495Z,49.13
2023-04-16T16:18:00.086Z,49.37
2023-04-16T16:20:28.142Z,49.29
2023-04-16T16:22:54.726Z,50.05
2023-04-16T16:25:21.783Z,49.75
2023-04-16T16:27:48.420Z,50.43
2023-04-16T16:30:15.160Z,50.47
2023-04-16T16:32:41.748Z,50.62
2023-04-16T16:35:09.085Z,49.23
2023-04-16T16:37:37.483Z,50.07
2023-04-16T16:40:04.679Z,49.84
2023-04-16T16:42:31.516Z,50.24
2023-04-16T16:47:43.351Z,50.33
2023-04-16T16:50:10.671Z,50.34
2023-04-16T16:52:38.656Z,50.65
2023-04-16T16:55:06.399Z,50.72
2023-04-16T16:57:33.057Z,51.77
2023-04-16T16:59:59.738Z,54.69
2023-04-16T17:02:26.391Z,55.91
2023-04-16T17:04:53.098Z,56.37
2023-04-16T17:07:19.658Z,57.99
2023-04-16T17:09:47.868Z,59.34
2023-04-16T17:12:14.384Z,60.93
2023-04-16T17:14:40.973Z,61.24
2023-04-16T17:17:07.553Z,61.60
2023-04-16T17:19:34.152Z,60.56
2023-04-16T17:22:00.724Z,62.19
2023-04-16T17:24:27.302Z,62.30
2023-04-16T17:26:55.377Z,63.40
2023-04-16T17:29:22.248Z,63.75
2023-04-16T17:31:48.817Z,63.84
2023-04-16T17:34:15.381Z,66.04
2023-04-16T17:36:41.925Z,65.38
2023-04-16T17:39:08.531Z,64.19
2023-04-16T17:41:35.094Z,64.55
2023-04-16T17:44:03.029Z,65.50
2023-04-16T17:46:29.918Z,64.83
2023-04-16T17:48:56.693Z,66.33
2023-04-16T17:51:23.266Z,66.34
2023-04-16T17:53:49.984Z,66.49
2023-04-16T17:56:16.626Z,66.69
2023-04-16T17:58:43.220Z,67.89
2023-04-16T18:01:11.313Z,67.59
2023-04-16T18:03:39.209Z,67.83
2023-04-16T18:06:06.063Z,68.37
2023-04-16T18:08:32.628Z,68.83
2023-04-16T18:10:59.267Z,67.82
2023-04-16T18:13:25.891Z,69.02
2023-04-16T18:15:52.644Z,69.58
2023-04-16T18:18:20.619Z,70.10
2023-04-16T18:20:47.287Z,71.03
2023-04-16T18:23:13.832Z,70.98
2023-04-16T18:25:40.443Z,71.20
2023-04-16T18:28:07.047Z,70.89
2023-04-16T18:30:33.723Z,70.92
2023-04-16T18:33:28.511Z,70.04
2023-04-16T18:35:48.688Z,70.46
2023-04-16T18:38:15.353Z,70.48
2023-04-16T18:40:42.018Z,69.86
2023-04-16T18:43:08.617Z,69.86
2023-04-16T18:45:35.632Z,69.23
2023-04-16T18:48:02.294Z,69.53
2023-04-16T18:50:28.901Z,68.72
2023-04-16T18:52:57.528Z,69.56
2023-04-16T18:55:24.192Z,69.01
2023-04-16T18:57:50.896Z,69.74
2023-04-16T19:00:18.049Z,69.21
2023-04-16T19:02:44.854Z,68.50
2023-04-16T19:05:11.842Z,68.94
2023-04-16T19:07:38.490Z,69.46
2023-04-16T19:10:08.064Z,69.67
2023-04-16T19:12:34.699Z,69.57
2023-04-16T19:15:01.518Z,69.09
2023-04-16T19:17:28.369Z,69.61
2023-04-16T19:19:55.018Z,70.43
2023-04-16T19:22:21.750Z,71.30
2023-04-16T19:24:48.413Z,71.13
2023-04-16T19:27:16.587Z,71.70
2023-04-16T19:29:43.512Z,70.54
2023-04-16T19:32:10.380Z,70.71
2023-04-16T19:34:36.959Z,70.40
2023-04-16T19:37:03.516Z,71.02
2023-04-16T19:39:30.092Z,70.51
2023-04-16T19:41:56.802Z,70.61
2023-04-16T19:44:24.806Z,70.80
2023-04-16T19:46:51.394Z,70.62
2023-04-16T19:49:18.024Z,71.01
2023-04-16T19:51:47.669Z,70.58
2023-04-16T19:54:14.354Z,71.45
2023-04-16T19:56:40.908Z,70.92
2023-04-16T19:59:07.469Z,71.00
2023-04-16T20:01:35.611Z,70.72
2023-04-16T20:04:02.288Z,70.83
2023-04-16T20:06:29.288Z,70.57
2023-04-16T20:08:56.454Z,70.49
2023-04-16T20:11:23.462Z,70.26
2023-04-16T20:13:50.093Z,70.92
2023-04-16T20:16:16.729Z,70.67
2023-04-16T20:18:44.827Z,71.35
2023-04-16T20:21:11.378Z,70.67
2023-04-16T20:23:38.186Z,70.08
2023-04-16T20:26:04.790Z,70.72
2023-04-16T20:28:31.380Z,70.27
2023-04-16T20:30:58.186Z,71.05
2023-04-16T20:33:24.950Z,70.60
2023-04-16T20:35:52.846Z,71.20
2023-04-16T20:38:19.495Z,71.01
2023-04-16T20:40:46.037Z,71.61
2023-04-16T20:43:12.610Z,72.65
2023-04-16T20:45:39.211Z,73.21
2023-04-16T20:48:06.089Z,73.69
2023-04-16T20:50:32.749Z,74.49
2023-04-16T20:53:00.840Z,74.05
2023-04-16T20:55:27.517Z,74.29
2023-04-16T20:57:54.099Z,74.72
2023-04-16T21:00:21.070Z,74.74
2023-04-16T21:02:48.144Z,74.23
2023-04-16T21:05:14.789Z,74.18
2023-04-16T21:07:41.723Z,73.31
2023-04-16T21:10:10.485Z,73.40
2023-04-16T21:12:37.107Z,73.48
2023-04-16T21:15:03.945Z,73.49
2023-04-16T21:17:30.655Z,72.63
2023-04-16T21:19:57.256Z,73.07
2023-04-16T21:22:23.854Z,73.26
2023-04-16T21:24:50.433Z,73.92
2023-04-16T21:27:18.389Z,74.11
2023-04-16T21:29:44.983Z,75.04
2023-04-16T21:32:11.573Z,75.48
2023-04-16T21:34:38.145Z,74.54
2023-04-16T21:37:04.730Z,75.40
2023-04-16T21:39:31.269Z,75.47
2023-04-16T21:41:57.847Z,74.58
2023-04-16T21:44:25.827Z,74.60
2023-04-16T21:46:52.437Z,74.51
2023-04-16T21:49:19.021Z,74.66
2023-04-16T21:51:45.815Z,74.35
2023-04-16T21:54:12.464Z,74.91
2023-04-16T21:56:39.240Z,75.81
2023-04-16T21:59:05.892Z,75.23
2023-04-16T22:01:33.992Z,74.04
2023-04-16T22:04:00.722Z,73.52
2023-04-16T22:06:27.299Z,74.23
2023-04-16T22:08:53.884Z,75.52
2023-04-16T22:11:20.503Z,76.12
2023-04-16T22:13:47.053Z,76.87
2023-04-16T22:16:13.803Z,77.64
2023-04-16T22:18:41.845Z,76.34
2023-04-16T22:21:08.415Z,75.83
2023-04-16T22:23:35.019Z,75.59
2023-04-16T22:26:01.672Z,76.50
2023-04-16T22:28:28.273Z,76.19
2023-04-16T22:30:55.083Z,76.45
2023-04-16T22:33:21.656Z,76.19
2023-04-16T22:35:49.911Z,75.58
2023-04-16T22:38:16.496Z,76.38
2023-04-16T22:40:43.087Z,76.99
2023-04-16T22:43:09.704Z,76.38
2023-04-16T22:45:36.296Z,76.64
2023-04-16T22:48:03.126Z,76.29
2023-04-16T22:50:30.828Z,76.12
2023-04-16T22:52:58.825Z,75.94
2023-04-16T22:55:25.388Z,75.70
2023-04-16T22:57:51.988Z,75.99
2023-04-16T23:00:18.980Z,75.85
2023-04-16T23:02:45.717Z,75.80
2023-04-16T23:05:12.498Z,74.60
2023-04-16T23:07:39.855Z,74.92
2023-04-16T23:10:08.796Z,77.20
2023-04-16T23:12:35.745Z,76.11
2023-04-16T23:15:02.294Z,76.16
2023-04-16T23:17:28.786Z,76.36
2023-04-16T23:19:55.538Z,77.10
2023-04-16T23:22:22.092Z,76.29
2023-04-16T23:24:48.744Z,76.86
2023-04-16T23:27:16.688Z,76.13
2023-04-16T23:29:43.324Z,76.75
2023-04-16T23:32:09.883Z,76.38
2023-04-16T23:34:36.410Z,76.34
2023-04-16T23:37:03.004Z,75.02
2023-04-16T23:39:29.835Z,75.64
2023-04-16T23:41:56.363Z,75.76
2023-04-16T23:44:24.417Z,76.19
2023-04-16T23:46:51.138Z,75.65
2023-04-16T23:49:17.838Z,75.46
2023-04-16T23:51:44.334Z,76.66
2023-04-16T23:54:10.945Z,76.05
2023-04-16T23:56:37.574Z,76.74
2023-04-16T23:59:04.220Z,75.88
